sensor_id;sensor_type;location;lat;lon;timestamp;P1;durP1;ratioP1;P2;durP2;ratioP2
54787;SDS011;59598;48.112;16.280;2022-09-14T00:00:13;3.80;;;2.20;;
54787;SDS011;59598;48.112;16.280;2022-09-14T00:02:48;2.25;;;2.00;;
54787;SDS011;59598;48.112;16.280;2022-09-14T00:05:22;2.85;;;2.30;;
54787;SDS011;59598;48.112;16.280;2022-09-14T00:07:58;2.40;;;2.00;;
54787;SDS011;59598;48.112;16.280;2022-09-14T00:10:29;4.88;;;2.22;;
54787;SDS011;59598;48.112;16.280;2022-09-14T00:13:01;3.47;;;2.63;;
54787;SDS011;59598;48.112;16.280;2022-09-14T00:15:37;2.40;;;2.20;;
54787;SDS011;59598;48.112;16.280;2022-09-14T00:18:15;2.42;;;2.22;;
54787;SDS011;59598;48.112;16.280;2022-09-14T00:20:49;2.40;;;2.20;;
54787;SDS011;59598;48.112;16.280;2022-09-14T00:23:23;2.65;;;2.45;;
54787;SDS011;59598;48.112;16.280;2022-09-14T00:26:01;3.37;;;2.57;;
54787;SDS011;59598;48.112;16.280;2022-09-14T00:28:44;2.15;;;1.95;;
54787;SDS011;59598;48.112;16.280;2022-09-14T00:31:21;3.25;;;2.40;;
54787;SDS011;59598;48.112;16.280;2022-09-14T00:33:57;2.35;;;2.15;;
54787;SDS011;59598;48.112;16.280;2022-09-14T00:36:33;2.10;;;2.00;;
54787;SDS011;59598;48.112;16.280;2022-09-14T00:39:13;4.05;;;2.53;;
54787;SDS011;59598;48.112;16.280;2022-09-14T00:41:47;2.40;;;2.20;;
54787;SDS011;59598;48.112;16.280;2022-09-14T00:49:38;3.42;;;2.47;;
54787;SDS011;59598;48.112;16.280;2022-09-14T00:54:57;2.97;;;2.40;;
54787;SDS011;59598;48.112;16.280;2022-09-14T00:57:40;2.80;;;2.33;;
54787;SDS011;59598;48.112;16.280;2022-09-14T01:00:23;3.53;;;1.90;;
54787;SDS011;59598;48.112;16.280;2022-09-14T01:02:59;3.65;;;2.00;;
54787;SDS011;59598;48.112;16.280;2022-09-14T01:05:35;3.50;;;2.05;;
54787;SDS011;59598;48.112;16.280;2022-09-14T01:08:18;2.45;;;1.80;;
54787;SDS011;59598;48.112;16.280;2022-09-14T01:11:13;2.30;;;2.10;;
54787;SDS011;59598;48.112;16.280;2022-09-14T01:17:10;2.72;;;1.92;;
54787;SDS011;59598;48.112;16.280;2022-09-14T01:26:06;3.50;;;2.42;;
54787;SDS011;59598;48.112;16.280;2022-09-14T01:34:23;2.53;;;2.30;;
54787;SDS011;59598;48.112;16.280;2022-09-14T01:38:20;6.30;;;2.75;;
54787;SDS011;59598;48.112;16.280;2022-09-14T01:40:50;2.83;;;2.63;;
54787;SDS011;59598;48.112;16.280;2022-09-14T01:43:27;2.40;;;2.20;;
54787;SDS011;59598;48.112;16.280;2022-09-14T01:46:13;4.45;;;2.60;;
54787;SDS011;59598;48.112;16.280;2022-09-14T01:52:23;3.10;;;2.17;;
54787;SDS011;59598;48.112;16.280;2022-09-14T01:55:10;2.42;;;2.13;;
54787;SDS011;59598;48.112;16.280;2022-09-14T01:58:06;2.00;;;1.85;;
54787;SDS011;59598;48.112;16.280;2022-09-14T02:00:55;2.08;;;1.88;;
54787;SDS011;59598;48.112;16.280;2022-09-14T02:03:40;2.38;;;2.17;;
54787;SDS011;59598;48.112;16.280;2022-09-14T02:09:22;2.22;;;1.83;;
54787;SDS011;59598;48.112;16.280;2022-09-14T02:11:58;3.92;;;2.10;;
54787;SDS011;59598;48.112;16.280;2022-09-14T02:14:33;2.30;;;2.08;;
54787;SDS011;59598;48.112;16.280;2022-09-14T02:17:04;3.28;;;2.10;;
54787;SDS011;59598;48.112;16.280;2022-09-14T02:19:45;2.33;;;2.13;;
54787;SDS011;59598;48.112;16.280;2022-09-14T02:22:22;2.28;;;2.08;;
54787;SDS011;59598;48.112;16.280;2022-09-14T02:25:00;3.92;;;2.20;;
54787;SDS011;59598;48.112;16.280;2022-09-14T02:27:36;3.85;;;2.30;;
54787;SDS011;59598;48.112;16.280;2022-09-14T02:30:10;4.22;;;1.90;;
54787;SDS011;59598;48.112;16.280;2022-09-14T02:41:17;2.33;;;2.13;;
54787;SDS011;59598;48.112;16.280;2022-09-14T02:44:17;2.58;;;2.00;;
54787;SDS011;59598;48.112;16.280;2022-09-14T02:55:20;1.80;;;1.70;;
54787;SDS011;59598;48.112;16.280;2022-09-14T03:00:54;2.05;;;1.73;;
54787;SDS011;59598;48.112;16.280;2022-09-14T03:03:31;3.70;;;2.28;;
54787;SDS011;59598;48.112;16.280;2022-09-14T03:06:03;2.00;;;1.80;;
54787;SDS011;59598;48.112;16.280;2022-09-14T03:08:35;2.05;;;1.80;;
54787;SDS011;59598;48.112;16.280;2022-09-14T03:11:07;1.85;;;1.75;;
54787;SDS011;59598;48.112;16.280;2022-09-14T03:13:41;3.10;;;2.03;;
54787;SDS011;59598;48.112;16.280;2022-09-14T03:16:16;2.40;;;2.03;;
54787;SDS011;59598;48.112;16.280;2022-09-14T03:18:53;1.60;;;1.50;;
54787;SDS011;59598;48.112;16.280;2022-09-14T03:21:26;2.28;;;2.08;;
54787;SDS011;59598;48.112;16.280;2022-09-14T03:24:00;3.72;;;2.08;;
54787;SDS011;59598;48.112;16.280;2022-09-14T03:26:40;1.50;;;1.40;;
54787;SDS011;59598;48.112;16.280;2022-09-14T03:29:19;2.10;;;1.90;;
54787;SDS011;59598;48.112;16.280;2022-09-14T03:31:55;2.30;;;2.10;;
54787;SDS011;59598;48.112;16.280;2022-09-14T03:34:29;4.70;;;1.98;;
54787;SDS011;59598;48.112;16.280;2022-09-14T03:37:01;3.10;;;1.98;;
54787;SDS011;59598;48.112;16.280;2022-09-14T03:39:35;2.78;;;2.22;;
54787;SDS011;59598;48.112;16.280;2022-09-14T03:42:09;1.80;;;1.70;;
54787;SDS011;59598;48.112;16.280;2022-09-14T03:44:45;2.72;;;1.83;;
54787;SDS011;59598;48.112;16.280;2022-09-14T03:47:19;3.70;;;2.10;;
54787;SDS011;59598;48.112;16.280;2022-09-14T03:49:56;2.55;;;2.00;;
54787;SDS011;59598;48.112;16.280;2022-09-14T03:52:28;4.22;;;2.00;;
54787;SDS011;59598;48.112;16.280;2022-09-14T03:55:03;3.30;;;1.80;;
54787;SDS011;59598;48.112;16.280;2022-09-14T04:00:12;2.85;;;2.13;;
54787;SDS011;59598;48.112;16.280;2022-09-14T04:02:46;2.00;;;1.88;;
54787;SDS011;59598;48.112;16.280;2022-09-14T04:05:38;2.10;;;1.88;;
54787;SDS011;59598;48.112;16.280;2022-09-14T04:08:10;1.90;;;1.80;;
54787;SDS011;59598;48.112;16.280;2022-09-14T04:10:46;2.00;;;1.85;;
54787;SDS011;59598;48.112;16.280;2022-09-14T04:13:18;1.80;;;1.70;;
54787;SDS011;59598;48.112;16.280;2022-09-14T04:16:01;2.25;;;2.05;;
54787;SDS011;59598;48.112;16.280;2022-09-14T04:18:33;3.45;;;2.08;;
54787;SDS011;59598;48.112;16.280;2022-09-14T04:21:15;3.45;;;2.00;;
54787;SDS011;59598;48.112;16.280;2022-09-14T04:23:56;2.35;;;1.90;;
54787;SDS011;59598;48.112;16.280;2022-09-14T04:26:32;2.17;;;1.98;;
54787;SDS011;59598;48.112;16.280;2022-09-14T04:29:06;2.10;;;1.95;;
54787;SDS011;59598;48.112;16.280;2022-09-14T04:31:42;2.83;;;1.80;;
54787;SDS011;59598;48.112;16.280;2022-09-14T04:34:17;4.40;;;2.33;;
54787;SDS011;59598;48.112;16.280;2022-09-14T04:36:48;2.28;;;2.08;;
54787;SDS011;59598;48.112;16.280;2022-09-14T04:39:30;4.13;;;2.60;;
54787;SDS011;59598;48.112;16.280;2022-09-14T04:42:04;2.25;;;2.05;;
54787;SDS011;59598;48.112;16.280;2022-09-14T04:44:37;3.33;;;2.25;;
54787;SDS011;59598;48.112;16.280;2022-09-14T04:47:08;2.30;;;2.10;;
54787;SDS011;59598;48.112;16.280;2022-09-14T04:49:44;3.33;;;2.47;;
54787;SDS011;59598;48.112;16.280;2022-09-14T04:52:18;2.30;;;2.10;;
54787;SDS011;59598;48.112;16.280;2022-09-14T04:54:49;3.83;;;2.05;;
54787;SDS011;59598;48.112;16.280;2022-09-14T04:57:24;3.85;;;2.40;;
54787;SDS011;59598;48.112;16.280;2022-09-14T04:59:58;2.33;;;2.13;;
54787;SDS011;59598;48.112;16.280;2022-09-14T05:02:36;7.22;;;3.22;;
54787;SDS011;59598;48.112;16.280;2022-09-14T05:05:18;2.97;;;2.40;;
54787;SDS011;59598;48.112;16.280;2022-09-14T05:07:52;3.42;;;2.63;;
54787;SDS011;59598;48.112;16.280;2022-09-14T05:10:34;2.55;;;2.30;;
54787;SDS011;59598;48.112;16.280;2022-09-14T05:13:10;2.75;;;1.98;;
54787;SDS011;59598;48.112;16.280;2022-09-14T05:15:48;3.42;;;2.40;;
54787;SDS011;59598;48.112;16.280;2022-09-14T05:18:20;2.83;;;2.00;;
54787;SDS011;59598;48.112;16.280;2022-09-14T05:20:55;2.95;;;2.15;;
54787;SDS011;59598;48.112;16.280;2022-09-14T05:26:03;2.42;;;2.10;;
54787;SDS011;59598;48.112;16.280;2022-09-14T05:28:41;3.78;;;1.90;;
54787;SDS011;59598;48.112;16.280;2022-09-14T05:31:15;3.00;;;2.25;;
54787;SDS011;59598;48.112;16.280;2022-09-14T05:33:46;2.35;;;2.15;;
54787;SDS011;59598;48.112;16.280;2022-09-14T05:36:21;2.83;;;2.22;;
54787;SDS011;59598;48.112;16.280;2022-09-14T05:38:55;2.47;;;2.28;;
54787;SDS011;59598;48.112;16.280;2022-09-14T05:41:32;3.42;;;2.20;;
54787;SDS011;59598;48.112;16.280;2022-09-14T05:44:04;2.47;;;2.13;;
54787;SDS011;59598;48.112;16.280;2022-09-14T05:46:39;2.30;;;2.10;;
54787;SDS011;59598;48.112;16.280;2022-09-14T05:49:15;2.72;;;2.42;;
54787;SDS011;59598;48.112;16.280;2022-09-14T05:51:47;5.60;;;2.38;;
54787;SDS011;59598;48.112;16.280;2022-09-14T05:54:21;1.90;;;1.80;;
54787;SDS011;59598;48.112;16.280;2022-09-14T05:57:02;3.05;;;2.67;;
54787;SDS011;59598;48.112;16.280;2022-09-14T06:02:18;2.38;;;1.88;;
54787;SDS011;59598;48.112;16.280;2022-09-14T06:04:49;3.13;;;1.95;;
54787;SDS011;59598;48.112;16.280;2022-09-14T06:07:21;2.78;;;1.83;;
54787;SDS011;59598;48.112;16.280;2022-09-14T06:09:53;2.92;;;2.05;;
54787;SDS011;59598;48.112;16.280;2022-09-14T06:12:25;2.33;;;1.98;;
54787;SDS011;59598;48.112;16.280;2022-09-14T06:14:59;2.65;;;2.45;;
54787;SDS011;59598;48.112;16.280;2022-09-14T06:17:30;2.22;;;1.98;;
54787;SDS011;59598;48.112;16.280;2022-09-14T06:20:04;2.83;;;2.30;;
54787;SDS011;59598;48.112;16.280;2022-09-14T06:22:41;2.55;;;2.35;;
54787;SDS011;59598;48.112;16.280;2022-09-14T06:25:12;3.83;;;2.55;;
54787;SDS011;59598;48.112;16.280;2022-09-14T06:27:44;3.90;;;2.28;;
54787;SDS011;59598;48.112;16.280;2022-09-14T06:30:15;4.13;;;2.78;;
54787;SDS011;59598;48.112;16.280;2022-09-14T06:32:47;6.13;;;2.78;;
54787;SDS011;59598;48.112;16.280;2022-09-14T06:35:18;2.63;;;2.20;;
54787;SDS011;59598;48.112;16.280;2022-09-14T06:37:51;3.28;;;2.20;;
54787;SDS011;59598;48.112;16.280;2022-09-14T06:40:25;2.80;;;2.40;;
54787;SDS011;59598;48.112;16.280;2022-09-14T06:42:57;3.80;;;2.35;;
54787;SDS011;59598;48.112;16.280;2022-09-14T06:45:31;3.15;;;2.80;;
54787;SDS011;59598;48.112;16.280;2022-09-14T06:48:06;3.63;;;2.42;;
54787;SDS011;59598;48.112;16.280;2022-09-14T06:50:37;4.38;;;2.60;;
54787;SDS011;59598;48.112;16.280;2022-09-14T06:53:09;3.00;;;2.70;;
54787;SDS011;59598;48.112;16.280;2022-09-14T06:55:42;4.07;;;2.92;;
54787;SDS011;59598;48.112;16.280;2022-09-14T06:58:15;3.03;;;2.58;;
54787;SDS011;59598;48.112;16.280;2022-09-14T07:00:46;3.97;;;2.67;;
54787;SDS011;59598;48.112;16.280;2022-09-14T07:03:21;2.78;;;2.25;;
54787;SDS011;59598;48.112;16.280;2022-09-14T07:05:55;3.28;;;2.50;;
54787;SDS011;59598;48.112;16.280;2022-09-14T07:08:38;6.13;;;3.13;;
54787;SDS011;59598;48.112;16.280;2022-09-14T07:11:12;3.03;;;2.72;;
54787;SDS011;59598;48.112;16.280;2022-09-14T07:13:47;3.22;;;2.35;;
54787;SDS011;59598;48.112;16.280;2022-09-14T07:16:24;4.38;;;2.97;;
54787;SDS011;59598;48.112;16.280;2022-09-14T07:18:57;5.75;;;3.13;;
54787;SDS011;59598;48.112;16.280;2022-09-14T07:21:34;4.50;;;3.28;;
54787;SDS011;59598;48.112;16.280;2022-09-14T07:24:06;4.38;;;3.22;;
54787;SDS011;59598;48.112;16.280;2022-09-14T07:26:40;6.85;;;3.20;;
54787;SDS011;59598;48.112;16.280;2022-09-14T07:29:13;4.93;;;3.05;;
54787;SDS011;59598;48.112;16.280;2022-09-14T07:31:52;6.55;;;3.50;;
54787;SDS011;59598;48.112;16.280;2022-09-14T07:34:24;4.63;;;2.65;;
54787;SDS011;59598;48.112;16.280;2022-09-14T07:36:55;4.47;;;2.65;;
54787;SDS011;59598;48.112;16.280;2022-09-14T07:39:27;2.72;;;2.42;;
54787;SDS011;59598;48.112;16.280;2022-09-14T07:41:59;2.75;;;2.10;;
54787;SDS011;59598;48.112;16.280;2022-09-14T07:44:33;5.60;;;2.17;;
54787;SDS011;59598;48.112;16.280;2022-09-14T07:47:06;5.22;;;3.00;;
54787;SDS011;59598;48.112;16.280;2022-09-14T07:49:40;3.30;;;2.70;;
54787;SDS011;59598;48.112;16.280;2022-09-14T07:52:11;4.65;;;2.50;;
54787;SDS011;59598;48.112;16.280;2022-09-14T07:54:48;3.15;;;2.58;;
54787;SDS011;59598;48.112;16.280;2022-09-14T07:57:19;3.80;;;2.70;;
54787;SDS011;59598;48.112;16.280;2022-09-14T07:59:51;2.47;;;2.22;;
54787;SDS011;59598;48.112;16.280;2022-09-14T08:02:25;2.47;;;2.10;;
54787;SDS011;59598;48.112;16.280;2022-09-14T08:05:01;3.20;;;2.40;;
54787;SDS011;59598;48.112;16.280;2022-09-14T08:07:35;3.70;;;3.10;;
54787;SDS011;59598;48.112;16.280;2022-09-14T08:10:09;5.18;;;3.67;;
54787;SDS011;59598;48.112;16.280;2022-09-14T08:12:41;7.03;;;3.80;;
54787;SDS011;59598;48.112;16.280;2022-09-14T08:15:15;5.97;;;3.40;;
54787;SDS011;59598;48.112;16.280;2022-09-14T08:17:48;3.78;;;3.38;;
54787;SDS011;59598;48.112;16.280;2022-09-14T08:20:20;5.40;;;2.70;;
54787;SDS011;59598;48.112;16.280;2022-09-14T08:22:53;4.97;;;3.05;;
54787;SDS011;59598;48.112;16.280;2022-09-14T08:25:25;5.18;;;3.47;;
54787;SDS011;59598;48.112;16.280;2022-09-14T08:27:56;5.43;;;3.30;;
54787;SDS011;59598;48.112;16.280;2022-09-14T08:30:30;5.50;;;3.60;;
54787;SDS011;59598;48.112;16.280;2022-09-14T08:33:03;5.43;;;3.60;;
54787;SDS011;59598;48.112;16.280;2022-09-14T08:35:43;4.80;;;3.75;;
54787;SDS011;59598;48.112;16.280;2022-09-14T08:38:15;3.95;;;3.53;;
54787;SDS011;59598;48.112;16.280;2022-09-14T08:40:47;8.18;;;3.75;;
54787;SDS011;59598;48.112;16.280;2022-09-14T08:43:22;5.55;;;4.40;;
54787;SDS011;59598;48.112;16.280;2022-09-14T08:46:02;5.93;;;3.63;;
54787;SDS011;59598;48.112;16.280;2022-09-14T08:48:43;5.13;;;3.20;;
54787;SDS011;59598;48.112;16.280;2022-09-14T08:51:19;4.00;;;3.10;;
54787;SDS011;59598;48.112;16.280;2022-09-14T08:53:51;6.22;;;3.90;;
54787;SDS011;59598;48.112;16.280;2022-09-14T08:56:32;6.00;;;4.60;;
54787;SDS011;59598;48.112;16.280;2022-09-14T09:05:21;4.18;;;2.97;;
54787;SDS011;59598;48.112;16.280;2022-09-14T09:10:53;4.40;;;3.42;;
54787;SDS011;59598;48.112;16.280;2022-09-14T09:13:30;7.38;;;4.13;;
54787;SDS011;59598;48.112;16.280;2022-09-14T09:16:06;9.55;;;3.33;;
54787;SDS011;59598;48.112;16.280;2022-09-14T09:18:48;5.60;;;2.97;;
54787;SDS011;59598;48.112;16.280;2022-09-14T09:21:28;4.63;;;3.25;;
54787;SDS011;59598;48.112;16.280;2022-09-14T09:24:23;4.30;;;3.13;;
54787;SDS011;59598;48.112;16.280;2022-09-14T09:27:18;8.70;;;3.63;;
54787;SDS011;59598;48.112;16.280;2022-09-14T09:29:57;4.85;;;3.90;;
54787;SDS011;59598;48.112;16.280;2022-09-14T09:32:31;3.58;;;3.22;;
54787;SDS011;59598;48.112;16.280;2022-09-14T09:35:06;6.22;;;3.67;;
54787;SDS011;59598;48.112;16.280;2022-09-14T09:37:42;6.30;;;3.50;;
54787;SDS011;59598;48.112;16.280;2022-09-14T09:40:21;6.15;;;3.22;;
54787;SDS011;59598;48.112;16.280;2022-09-14T09:43:11;4.55;;;3.55;;
54787;SDS011;59598;48.112;16.280;2022-09-14T09:48:40;3.25;;;2.85;;
54787;SDS011;59598;48.112;16.280;2022-09-14T09:51:17;3.67;;;2.97;;
54787;SDS011;59598;48.112;16.280;2022-09-14T09:56:57;4.65;;;3.40;;
54787;SDS011;59598;48.112;16.280;2022-09-14T09:59:39;3.63;;;2.90;;
54787;SDS011;59598;48.112;16.280;2022-09-14T10:02:22;4.07;;;3.42;;
54787;SDS011;59598;48.112;16.280;2022-09-14T10:05:01;5.03;;;3.42;;
54787;SDS011;59598;48.112;16.280;2022-09-14T10:07:53;4.45;;;3.25;;
54787;SDS011;59598;48.112;16.280;2022-09-14T10:13:15;4.50;;;2.97;;
54787;SDS011;59598;48.112;16.280;2022-09-14T10:16:13;2.97;;;2.60;;
54787;SDS011;59598;48.112;16.280;2022-09-14T10:18:51;6.07;;;3.70;;
54787;SDS011;59598;48.112;16.280;2022-09-14T10:21:26;3.88;;;3.38;;
54787;SDS011;59598;48.112;16.280;2022-09-14T10:24:15;3.55;;;2.90;;
54787;SDS011;59598;48.112;16.280;2022-09-14T10:26:50;6.55;;;2.88;;
54787;SDS011;59598;48.112;16.280;2022-09-14T10:34:49;3.75;;;3.17;;
54787;SDS011;59598;48.112;16.280;2022-09-14T10:37:32;3.78;;;3.17;;
54787;SDS011;59598;48.112;16.280;2022-09-14T10:40:13;6.90;;;3.30;;
54787;SDS011;59598;48.112;16.280;2022-09-14T10:45:47;5.25;;;3.35;;
54787;SDS011;59598;48.112;16.280;2022-09-14T10:51:44;4.40;;;3.42;;
54787;SDS011;59598;48.112;16.280;2022-09-14T11:01:07;6.40;;;3.47;;
54787;SDS011;59598;48.112;16.280;2022-09-14T11:04:05;4.15;;;3.45;;
54787;SDS011;59598;48.112;16.280;2022-09-14T11:07:12;3.33;;;2.97;;
54787;SDS011;59598;48.112;16.280;2022-09-14T11:10:14;3.45;;;3.15;;
54787;SDS011;59598;48.112;16.280;2022-09-14T11:24:54;4.88;;;3.55;;
54787;SDS011;59598;48.112;16.280;2022-09-14T11:30:21;4.30;;;3.58;;
54787;SDS011;59598;48.112;16.280;2022-09-14T11:33:10;4.88;;;3.60;;
54787;SDS011;59598;48.112;16.280;2022-09-14T11:35:52;4.63;;;3.78;;
54787;SDS011;59598;48.112;16.280;2022-09-14T11:38:34;4.60;;;3.28;;
54787;SDS011;59598;48.112;16.280;2022-09-14T11:41:20;5.20;;;3.22;;
54787;SDS011;59598;48.112;16.280;2022-09-14T11:44:11;5.70;;;3.03;;
54787;SDS011;59598;48.112;16.280;2022-09-14T11:47:06;4.72;;;3.20;;
54787;SDS011;59598;48.112;16.280;2022-09-14T11:53:07;5.25;;;3.30;;
54787;SDS011;59598;48.112;16.280;2022-09-14T11:55:43;3.72;;;2.75;;
54787;SDS011;59598;48.112;16.280;2022-09-14T11:58:20;4.70;;;3.28;;
54787;SDS011;59598;48.112;16.280;2022-09-14T12:11:50;5.72;;;3.53;;
54787;SDS011;59598;48.112;16.280;2022-09-14T12:14:31;4.88;;;3.58;;
54787;SDS011;59598;48.112;16.280;2022-09-14T12:20:31;5.25;;;3.90;;
54787;SDS011;59598;48.112;16.280;2022-09-14T12:28:43;4.38;;;3.80;;
54787;SDS011;59598;48.112;16.280;2022-09-14T12:31:28;3.83;;;3.22;;
54787;SDS011;59598;48.112;16.280;2022-09-14T12:34:29;3.67;;;3.38;;
54787;SDS011;59598;48.112;16.280;2022-09-14T12:42:50;5.18;;;3.60;;
54787;SDS011;59598;48.112;16.280;2022-09-14T13:00:19;3.22;;;2.92;;
54787;SDS011;59598;48.112;16.280;2022-09-14T13:05:40;4.13;;;3.50;;
54787;SDS011;59598;48.112;16.280;2022-09-14T13:08:16;10.30;;;3.00;;
54787;SDS011;59598;48.112;16.280;2022-09-14T13:10:59;4.72;;;3.30;;
54787;SDS011;59598;48.112;16.280;2022-09-14T13:13:35;3.78;;;3.30;;
54787;SDS011;59598;48.112;16.280;2022-09-14T13:16:15;5.07;;;3.25;;
54787;SDS011;59598;48.112;16.280;2022-09-14T13:19:20;5.28;;;3.28;;
54787;SDS011;59598;48.112;16.280;2022-09-14T13:22:03;6.53;;;3.13;;
54787;SDS011;59598;48.112;16.280;2022-09-14T13:24:54;7.43;;;3.50;;
54787;SDS011;59598;48.112;16.280;2022-09-14T13:27:34;5.50;;;2.78;;
54787;SDS011;59598;48.112;16.280;2022-09-14T13:32:53;4.80;;;3.20;;
54787;SDS011;59598;48.112;16.280;2022-09-14T13:35:42;3.92;;;2.85;;
54787;SDS011;59598;48.112;16.280;2022-09-14T13:38:19;4.25;;;3.08;;
54787;SDS011;59598;48.112;16.280;2022-09-14T13:41:17;4.60;;;3.28;;
54787;SDS011;59598;48.112;16.280;2022-09-14T13:43:54;3.95;;;3.05;;
54787;SDS011;59598;48.112;16.280;2022-09-14T13:46:27;4.57;;;3.22;;
54787;SDS011;59598;48.112;16.280;2022-09-14T13:48:59;4.93;;;3.08;;
54787;SDS011;59598;48.112;16.280;2022-09-14T13:51:30;4.00;;;3.00;;
54787;SDS011;59598;48.112;16.280;2022-09-14T13:57:10;5.20;;;3.22;;
54787;SDS011;59598;48.112;16.280;2022-09-14T14:02:45;3.88;;;2.50;;
54787;SDS011;59598;48.112;16.280;2022-09-14T14:05:33;3.65;;;2.55;;
54787;SDS011;59598;48.112;16.280;2022-09-14T14:11:11;3.15;;;2.30;;
54787;SDS011;59598;48.112;16.280;2022-09-14T14:13:46;5.57;;;2.45;;
54787;SDS011;59598;48.112;16.280;2022-09-14T14:18:56;3.55;;;2.10;;
54787;SDS011;59598;48.112;16.280;2022-09-14T14:21:29;2.75;;;2.35;;
54787;SDS011;59598;48.112;16.280;2022-09-14T14:30:21;4.53;;;2.58;;
54787;SDS011;59598;48.112;16.280;2022-09-14T14:32:55;2.40;;;2.20;;
54787;SDS011;59598;48.112;16.280;2022-09-14T14:35:29;3.20;;;2.30;;
54787;SDS011;59598;48.112;16.280;2022-09-14T14:38:01;3.13;;;2.30;;
54787;SDS011;59598;48.112;16.280;2022-09-14T14:40:32;2.90;;;2.10;;
54787;SDS011;59598;48.112;16.280;2022-09-14T14:43:09;2.50;;;2.15;;
54787;SDS011;59598;48.112;16.280;2022-09-14T14:45:54;2.22;;;2.03;;
54787;SDS011;59598;48.112;16.280;2022-09-14T14:48:30;2.40;;;1.88;;
54787;SDS011;59598;48.112;16.280;2022-09-14T14:51:04;2.35;;;2.00;;
54787;SDS011;59598;48.112;16.280;2022-09-14T14:53:39;3.03;;;1.83;;
54787;SDS011;59598;48.112;16.280;2022-09-14T14:56:15;5.35;;;2.25;;
54787;SDS011;59598;48.112;16.280;2022-09-14T14:58:47;4.38;;;2.10;;
54787;SDS011;59598;48.112;16.280;2022-09-14T15:01:18;2.58;;;2.17;;
54787;SDS011;59598;48.112;16.280;2022-09-14T15:03:51;2.08;;;1.77;;
54787;SDS011;59598;48.112;16.280;2022-09-14T15:06:34;3.63;;;2.00;;
54787;SDS011;59598;48.112;16.280;2022-09-14T15:09:08;4.03;;;2.08;;
54787;SDS011;59598;48.112;16.280;2022-09-14T15:11:48;2.35;;;1.95;;
54787;SDS011;59598;48.112;16.280;2022-09-14T15:14:29;5.03;;;2.00;;
54787;SDS011;59598;48.112;16.280;2022-09-14T15:17:03;3.53;;;2.17;;
54787;SDS011;59598;48.112;16.280;2022-09-14T15:19:39;10.55;;;2.08;;
54787;SDS011;59598;48.112;16.280;2022-09-14T15:24:45;4.80;;;2.00;;
54787;SDS011;59598;48.112;16.280;2022-09-14T15:27:19;5.60;;;1.77;;
54787;SDS011;59598;48.112;16.280;2022-09-14T15:29:51;2.28;;;2.08;;
54787;SDS011;59598;48.112;16.280;2022-09-14T15:32:22;2.97;;;2.05;;
54787;SDS011;59598;48.112;16.280;2022-09-14T15:34:54;4.90;;;2.08;;
54787;SDS011;59598;48.112;16.280;2022-09-14T15:37:25;3.83;;;2.08;;
54787;SDS011;59598;48.112;16.280;2022-09-14T15:39:56;3.65;;;1.88;;
54787;SDS011;59598;48.112;16.280;2022-09-14T15:45:07;4.18;;;2.33;;
54787;SDS011;59598;48.112;16.280;2022-09-14T15:47:40;2.40;;;2.13;;
54787;SDS011;59598;48.112;16.280;2022-09-14T15:50:17;4.20;;;2.00;;
54787;SDS011;59598;48.112;16.280;2022-09-14T15:52:50;4.05;;;2.08;;
54787;SDS011;59598;48.112;16.280;2022-09-14T15:57:56;2.83;;;2.00;;
54787;SDS011;59598;48.112;16.280;2022-09-14T16:00:36;2.83;;;2.20;;
54787;SDS011;59598;48.112;16.280;2022-09-14T16:03:14;2.20;;;1.88;;
54787;SDS011;59598;48.112;16.280;2022-09-14T16:05:46;3.78;;;2.08;;
54787;SDS011;59598;48.112;16.280;2022-09-14T16:08:17;2.10;;;1.90;;
54787;SDS011;59598;48.112;16.280;2022-09-14T16:10:58;3.38;;;2.00;;
54787;SDS011;59598;48.112;16.280;2022-09-14T16:13:33;2.88;;;2.17;;
54787;SDS011;59598;48.112;16.280;2022-09-14T16:16:12;3.45;;;2.55;;
54787;SDS011;59598;48.112;16.280;2022-09-14T16:18:46;2.53;;;2.05;;
54787;SDS011;59598;48.112;16.280;2022-09-14T16:24:00;5.85;;;2.33;;
54787;SDS011;59598;48.112;16.280;2022-09-14T16:26:36;2.88;;;2.33;;
54787;SDS011;59598;48.112;16.280;2022-09-14T16:29:10;5.35;;;2.67;;
54787;SDS011;59598;48.112;16.280;2022-09-14T16:31:49;3.30;;;2.47;;
54787;SDS011;59598;48.112;16.280;2022-09-14T16:34:27;4.05;;;2.90;;
54787;SDS011;59598;48.112;16.280;2022-09-14T16:37:06;2.90;;;2.58;;
54787;SDS011;59598;48.112;16.280;2022-09-14T16:39:40;5.30;;;3.30;;
54787;SDS011;59598;48.112;16.280;2022-09-14T16:42:12;3.92;;;2.83;;
54787;SDS011;59598;48.112;16.280;2022-09-14T16:44:49;4.65;;;2.95;;
54787;SDS011;59598;48.112;16.280;2022-09-14T16:47:20;3.30;;;3.00;;
54787;SDS011;59598;48.112;16.280;2022-09-14T16:49:57;6.70;;;3.13;;
54787;SDS011;59598;48.112;16.280;2022-09-14T16:52:35;3.65;;;2.85;;
54787;SDS011;59598;48.112;16.280;2022-09-14T16:55:09;3.90;;;3.20;;
54787;SDS011;59598;48.112;16.280;2022-09-14T16:57:43;5.10;;;3.20;;
54787;SDS011;59598;48.112;16.280;2022-09-14T17:00:25;6.13;;;3.47;;
54787;SDS011;59598;48.112;16.280;2022-09-14T17:02:57;4.70;;;3.50;;
54787;SDS011;59598;48.112;16.280;2022-09-14T17:05:31;4.32;;;3.15;;
54787;SDS011;59598;48.112;16.280;2022-09-14T17:08:02;7.03;;;4.00;;
54787;SDS011;59598;48.112;16.280;2022-09-14T17:10:34;4.65;;;3.75;;
54787;SDS011;59598;48.112;16.280;2022-09-14T17:13:07;5.22;;;3.70;;
54787;SDS011;59598;48.112;16.280;2022-09-14T17:15:39;3.97;;;3.15;;
54787;SDS011;59598;48.112;16.280;2022-09-14T17:18:10;6.13;;;4.00;;
54787;SDS011;59598;48.112;16.280;2022-09-14T17:20:54;4.28;;;3.47;;
54787;SDS011;59598;48.112;16.280;2022-09-14T17:23:30;5.28;;;3.13;;
54787;SDS011;59598;48.112;16.280;2022-09-14T17:26:03;3.83;;;2.88;;
54787;SDS011;59598;48.112;16.280;2022-09-14T17:28:36;4.22;;;2.78;;
54787;SDS011;59598;48.112;16.280;2022-09-14T17:31:09;7.22;;;3.58;;
54787;SDS011;59598;48.112;16.280;2022-09-14T17:33:42;3.78;;;3.20;;
54787;SDS011;59598;48.112;16.280;2022-09-14T17:36:17;4.25;;;3.17;;
54787;SDS011;59598;48.112;16.280;2022-09-14T17:38:51;3.30;;;3.00;;
54787;SDS011;59598;48.112;16.280;2022-09-14T17:41:26;4.40;;;2.58;;
54787;SDS011;59598;48.112;16.280;2022-09-14T17:44:01;3.25;;;2.80;;
54787;SDS011;59598;48.112;16.280;2022-09-14T17:46:34;4.47;;;2.83;;
54787;SDS011;59598;48.112;16.280;2022-09-14T17:49:08;5.88;;;3.45;;
54787;SDS011;59598;48.112;16.280;2022-09-14T17:51:43;4.80;;;2.97;;
54787;SDS011;59598;48.112;16.280;2022-09-14T17:54:15;3.22;;;2.90;;
54787;SDS011;59598;48.112;16.280;2022-09-14T17:56:50;5.70;;;3.05;;
54787;SDS011;59598;48.112;16.280;2022-09-14T17:59:22;3.45;;;3.10;;
54787;SDS011;59598;48.112;16.280;2022-09-14T18:01:53;2.53;;;2.33;;
54787;SDS011;59598;48.112;16.280;2022-09-14T18:04:25;4.15;;;2.67;;
54787;SDS011;59598;48.112;16.280;2022-09-14T18:07:01;5.88;;;2.40;;
54787;SDS011;59598;48.112;16.280;2022-09-14T18:09:40;7.80;;;2.65;;
54787;SDS011;59598;48.112;16.280;2022-09-14T18:12:15;2.85;;;2.47;;
54787;SDS011;59598;48.112;16.280;2022-09-14T18:14:47;3.55;;;2.47;;
54787;SDS011;59598;48.112;16.280;2022-09-14T18:17:19;2.80;;;2.60;;
54787;SDS011;59598;48.112;16.280;2022-09-14T18:19:53;3.25;;;2.50;;
54787;SDS011;59598;48.112;16.280;2022-09-14T18:25:02;3.63;;;2.78;;
54787;SDS011;59598;48.112;16.280;2022-09-14T18:27:38;4.88;;;3.00;;
54787;SDS011;59598;48.112;16.280;2022-09-14T18:30:14;3.45;;;2.78;;
54787;SDS011;59598;48.112;16.280;2022-09-14T18:32:48;8.23;;;2.60;;
54787;SDS011;59598;48.112;16.280;2022-09-14T18:35:26;5.63;;;2.95;;
54787;SDS011;59598;48.112;16.280;2022-09-14T18:37:58;3.85;;;2.65;;